sensor_id;sensor_type;location;lat;lon;timestamp;pressure;altitude;pressure_sealevel;temperature;humidity
32452;BME280;45528;52.102;5.242;2023-02-14T00:00:21;103094.0;;;9.65;58.32
32452;BME280;45528;52.102;5.242;2023-02-14T00:01:57;103094.0;;;9.64;58.58
32452;BME280;45528;52.102;5.242;2023-02-14T00:05:10;103095.0;;;9.64;58.61
32452;BME280;45528;52.102;5.242;2023-02-14T00:06:46;103095.0;;;9.64;58.61
32452;BME280;45528;52.102;5.242;2023-02-14T00:08:23;103093.0;;;9.63;58.71
32452;BME280;45528;52.102;5.242;2023-02-14T00:11:35;103093.0;;;9.6;58.61
32452;BME280;45528;52.102;5.242;2023-02-14T00:13:12;103091.00000000001;;;9.58;58.64
32452;BME280;45528;52.102;5.242;2023-02-14T00:15:54;103091.00000000001;;;9.52;58.5
32452;BME280;45528;52.102;5.242;2023-02-14T00:17:30;103090.00000000001;;;9.47;58.67
32452;BME280;45528;52.102;5.242;2023-02-14T00:19:06;103083.99999999999;;;9.47;58.84
32452;BME280;45528;52.102;5.242;2023-02-14T00:20:43;103082.0;;;9.44;58.81
32452;BME280;45528;52.102;5.242;2023-02-14T00:23:55;103083.99999999999;;;9.44;58.74
32452;BME280;45528;52.102;5.242;2023-02-14T00:25:32;103083.0;;;9.6;58.35
32452;BME280;45528;52.102;5.242;2023-02-14T00:27:09;103082.0;;;9.49;58.45
32452;BME280;45528;52.102;5.242;2023-02-14T00:30:21;103080.0;;;9.56;58.21
32452;BME280;45528;52.102;5.242;2023-02-14T00:31:58;103081.0;;;9.6;58.24
32452;BME280;45528;52.102;5.242;2023-02-14T00:33:35;103081.0;;;9.5;58.38
32452;BME280;45528;52.102;5.242;2023-02-14T00:35:11;103079.0;;;9.43;58.53
32452;BME280;45528;52.102;5.242;2023-02-14T00:38:27;103076.0;;;9.36;58.45
32452;BME280;45528;52.102;5.242;2023-02-14T00:40:05;103076.0;;;9.31;58.43
32452;BME280;45528;52.102;5.242;2023-02-14T00:41:42;103078.0;;;9.38;58.3
32452;BME280;45528;52.102;5.242;2023-02-14T00:44:55;103080.0;;;9.39;58.3
32452;BME280;45528;52.102;5.242;2023-02-14T00:46:31;103078.0;;;9.47;58.11
32452;BME280;45528;52.102;5.242;2023-02-14T00:48:08;103075.0;;;9.46;58.0
32452;BME280;45528;52.102;5.242;2023-02-14T00:51:21;103076.0;;;9.32;58.34
32452;BME280;45528;52.102;5.242;2023-02-14T00:52:57;103070.0;;;9.18;58.44
32452;BME280;45528;52.102;5.242;2023-02-14T00:54:33;103069.0;;;9.13;58.79
32452;BME280;45528;52.102;5.242;2023-02-14T00:56:10;103066.00000000001;;;9.08;58.88
32452;BME280;45528;52.102;5.242;2023-02-14T00:59:23;103067.0;;;9.06;59.0
32452;BME280;45528;52.102;5.242;2023-02-14T01:00:59;103063.00000000001;;;9.07;58.96
32452;BME280;45528;52.102;5.242;2023-02-14T01:02:35;103064.00000000001;;;9.06;58.84
32452;BME280;45528;52.102;5.242;2023-02-14T01:05:48;103058.99999999999;;;9.06;58.91
32452;BME280;45528;52.102;5.242;2023-02-14T01:07:25;103061.99999999999;;;9.05;58.81
32452;BME280;45528;52.102;5.242;2023-02-14T01:09:01;103058.0;;;9.02;58.71
32452;BME280;45528;52.102;5.242;2023-02-14T01:12:15;103063.00000000001;;;9.02;58.76
32452;BME280;45528;52.102;5.242;2023-02-14T01:13:54;103057.0;;;8.98;58.79
32452;BME280;45528;52.102;5.242;2023-02-14T01:15:32;103049.0;;;9.01;58.76
32452;BME280;45528;52.102;5.242;2023-02-14T01:17:13;103055.0;;;8.99;58.56
32452;BME280;45528;52.102;5.242;2023-02-14T01:20:26;103053.0;;;8.98;58.72
32452;BME280;45528;52.102;5.242;2023-02-14T01:22:02;103054.0;;;8.91;58.55
32452;BME280;45528;52.102;5.242;2023-02-14T01:23:39;103052.0;;;8.86;58.4
32452;BME280;45528;52.102;5.242;2023-02-14T01:26:52;103047.0;;;8.81;58.43
32452;BME280;45528;52.102;5.242;2023-02-14T01:28:29;103045.0;;;8.75;58.49
32452;BME280;45528;52.102;5.242;2023-02-14T01:30:06;103042.0;;;8.72;58.49
32452;BME280;45528;52.102;5.242;2023-02-14T01:31:44;103041.00000000001;;;8.72;58.78
32452;BME280;45528;52.102;5.242;2023-02-14T01:34:58;103044.0;;;8.72;58.8
32452;BME280;45528;52.102;5.242;2023-02-14T01:36:36;103045.0;;;8.72;58.63
32452;BME280;45528;52.102;5.242;2023-02-14T01:38:14;103047.0;;;8.72;58.86
32452;BME280;45528;52.102;5.242;2023-02-14T01:41:28;103044.0;;;8.69;58.77
32452;BME280;45528;52.102;5.242;2023-02-14T01:43:07;103045.0;;;8.67;58.48
32452;BME280;45528;52.102;5.242;2023-02-14T01:44:59;103047.0;;;8.59;58.43
32452;BME280;45528;52.102;5.242;2023-02-14T01:46:40;103045.0;;;8.58;58.66
32452;BME280;45528;52.102;5.242;2023-02-14T01:50:01;103044.0;;;8.58;58.84
32452;BME280;45528;52.102;5.242;2023-02-14T01:51:43;103040.00000000001;;;8.57;58.98
32452;BME280;45528;52.102;5.242;2023-02-14T01:53:25;103039.00000000001;;;8.56;58.87
32452;BME280;45528;52.102;5.242;2023-02-14T01:55:07;103034.99999999999;;;8.53;58.72
32452;BME280;45528;52.102;5.242;2023-02-14T01:58:28;103034.99999999999;;;8.52;58.98
32452;BME280;45528;52.102;5.242;2023-02-14T02:01:11;103039.00000000001;;;8.5;59.08
32452;BME280;45528;52.102;5.242;2023-02-14T02:02:48;103036.99999999999;;;8.49;58.95
32452;BME280;45528;52.102;5.242;2023-02-14T02:04:29;103039.00000000001;;;8.48;58.97
32452;BME280;45528;52.102;5.242;2023-02-14T02:06:12;103039.00000000001;;;8.43;58.92
32452;BME280;45528;52.102;5.242;2023-02-14T02:07:51;103033.99999999999;;;8.41;58.89
32452;BME280;45528;52.102;5.242;2023-02-14T02:09:33;103039.00000000001;;;8.41;58.88
32452;BME280;45528;52.102;5.242;2023-02-14T02:12:47;103034.99999999999;;;8.42;58.8
32452;BME280;45528;52.102;5.242;2023-02-14T02:14:26;103038.00000000001;;;8.42;58.84
32452;BME280;45528;52.102;5.242;2023-02-14T02:16:16;103036.99999999999;;;8.43;58.71
32452;BME280;45528;52.102;5.242;2023-02-14T02:18:02;103033.99999999999;;;8.41;58.93
32452;BME280;45528;52.102;5.242;2023-02-14T02:23:52;103038.00000000001;;;8.41;58.69
32452;BME280;45528;52.102;5.242;2023-02-14T02:27:06;103034.99999999999;;;8.43;58.63
32452;BME280;45528;52.102;5.242;2023-02-14T02:30:43;103036.99999999999;;;8.44;58.35
32452;BME280;45528;52.102;5.242;2023-02-14T02:32:40;103033.99999999999;;;8.43;58.42
32452;BME280;45528;52.102;5.242;2023-02-14T02:36:27;103036.99999999999;;;8.4;58.51
32452;BME280;45528;52.102;5.242;2023-02-14T02:38:32;103033.0;;;8.39;58.64
32452;BME280;45528;52.102;5.242;2023-02-14T02:40:25;103033.99999999999;;;8.42;58.68
32452;BME280;45528;52.102;5.242;2023-02-14T02:42:09;103033.99999999999;;;8.41;58.47
32452;BME280;45528;52.102;5.242;2023-02-14T02:44:02;103031.0;;;8.47;58.44
32452;BME280;45528;52.102;5.242;2023-02-14T02:46:53;103028.0;;;8.41;58.41
32452;BME280;45528;52.102;5.242;2023-02-14T02:48:40;103026.0;;;8.41;58.52
32452;BME280;45528;52.102;5.242;2023-02-14T02:54:33;103029.0;;;8.44;58.36
32452;BME280;45528;52.102;5.242;2023-02-14T02:57:20;103029.0;;;8.43;58.36
32452;BME280;45528;52.102;5.242;2023-02-14T02:59:03;103024.0;;;8.41;58.37
32452;BME280;45528;52.102;5.242;2023-02-14T03:00:45;103026.0;;;8.39;58.49
32452;BME280;45528;52.102;5.242;2023-02-14T03:02:27;103025.0;;;8.35;58.52
32452;BME280;45528;52.102;5.242;2023-02-14T03:05:09;103025.0;;;8.38;58.56
32452;BME280;45528;52.102;5.242;2023-02-14T03:06:46;103019.0;;;8.35;58.55
32452;BME280;45528;52.102;5.242;2023-02-14T03:08:22;103017.0;;;8.32;58.47
32452;BME280;45528;52.102;5.242;2023-02-14T03:11:39;103014.00000000001;;;8.3;58.39
32452;BME280;45528;52.102;5.242;2023-02-14T03:13:39;103014.00000000001;;;8.25;58.48
32452;BME280;45528;52.102;5.242;2023-02-14T03:15:40;103008.99999999999;;;8.23;58.42
32452;BME280;45528;52.102;5.242;2023-02-14T03:20:43;103014.00000000001;;;8.23;58.38
32452;BME280;45528;52.102;5.242;2023-02-14T03:22:30;103011.99999999999;;;8.17;58.48
32452;BME280;45528;52.102;5.242;2023-02-14T03:24:24;103009.99999999999;;;8.11;58.51
32452;BME280;45528;52.102;5.242;2023-02-14T03:26:08;103011.99999999999;;;8.07;58.68
32452;BME280;45528;52.102;5.242;2023-02-14T03:27:55;103011.99999999999;;;8.07;58.55
32452;BME280;45528;52.102;5.242;2023-02-14T03:29:41;103008.0;;;8.08;58.58
32452;BME280;45528;52.102;5.242;2023-02-14T03:31:27;103011.99999999999;;;8.07;58.77
32452;BME280;45528;52.102;5.242;2023-02-14T03:33:13;103011.99999999999;;;8.05;58.7
32452;BME280;45528;52.102;5.242;2023-02-14T03:36:44;103008.99999999999;;;8.06;58.6
32452;BME280;45528;52.102;5.242;2023-02-14T03:38:29;103004.0;;;8.06;58.55
32452;BME280;45528;52.102;5.242;2023-02-14T03:40:12;103006.0;;;8.08;58.4
32452;BME280;45528;52.102;5.242;2023-02-14T03:41:55;103008.0;;;8.07;58.35
32452;BME280;45528;52.102;5.242;2023-02-14T03:43:40;103007.0;;;8.06;58.36
32452;BME280;45528;52.102;5.242;2023-02-14T03:47:06;103009.99999999999;;;8.06;58.3
32452;BME280;45528;52.102;5.242;2023-02-14T03:48:46;103008.0;;;8.03;58.32
32452;BME280;45528;52.102;5.242;2023-02-14T03:50:27;103005.0;;;8.02;58.48
32452;BME280;45528;52.102;5.242;2023-02-14T03:52:07;103002.0;;;8.07;58.39
32452;BME280;45528;52.102;5.242;2023-02-14T03:55:33;103003.0;;;8.05;58.34
32452;BME280;45528;52.102;5.242;2023-02-14T03:57:20;103004.0;;;8.02;58.49
32452;BME280;45528;52.102;5.242;2023-02-14T03:59:02;103004.0;;;8.01;58.64
32452;BME280;45528;52.102;5.242;2023-02-14T04:00:42;103005.0;;;8.0;58.58
32452;BME280;45528;52.102;5.242;2023-02-14T04:02:25;103000.0;;;7.99;58.52
32452;BME280;45528;52.102;5.242;2023-02-14T04:05:45;103003.0;;;7.99;58.5
32452;BME280;45528;52.102;5.242;2023-02-14T04:07:23;103000.0;;;8.0;58.63
32452;BME280;45528;52.102;5.242;2023-02-14T04:08:59;103005.0;;;7.99;58.57
32452;BME280;45528;52.102;5.242;2023-02-14T04:12:14;103006.0;;;7.98;58.44
32452;BME280;45528;52.102;5.242;2023-02-14T04:13:53;103009.99999999999;;;7.99;58.45
32452;BME280;45528;52.102;5.242;2023-02-14T04:15:29;103011.99999999999;;;8.0;58.58
32452;BME280;45528;52.102;5.242;2023-02-14T04:19:26;103009.99999999999;;;8.0;58.6
32452;BME280;45528;52.102;5.242;2023-02-14T04:21:04;103008.99999999999;;;7.97;58.59
32452;BME280;45528;52.102;5.242;2023-02-14T04:22:40;103011.99999999999;;;7.97;58.6
32452;BME280;45528;52.102;5.242;2023-02-14T04:24:17;103009.99999999999;;;7.99;58.74
32452;BME280;45528;52.102;5.242;2023-02-14T04:25:54;103014.00000000001;;;7.97;58.79
32452;BME280;45528;52.102;5.242;2023-02-14T04:27:30;103006.0;;;7.97;58.71
32452;BME280;45528;52.102;5.242;2023-02-14T04:30:42;103009.99999999999;;;7.95;58.69
32452;BME280;45528;52.102;5.242;2023-02-14T04:32:20;103009.99999999999;;;7.92;58.78
32452;BME280;45528;52.102;5.242;2023-02-14T04:33:57;103006.0;;;7.94;58.72
32452;BME280;45528;52.102;5.242;2023-02-14T04:37:10;103008.0;;;7.91;58.79
32452;BME280;45528;52.102;5.242;2023-02-14T04:38:47;103003.0;;;7.92;58.87
32452;BME280;45528;52.102;5.242;2023-02-14T04:40:23;103002.0;;;7.94;58.92
32452;BME280;45528;52.102;5.242;2023-02-14T04:43:35;103001.0;;;7.96;58.99
32452;BME280;45528;52.102;5.242;2023-02-14T04:45:12;102999.0;;;7.99;58.73
32452;BME280;45528;52.102;5.242;2023-02-14T04:46:49;102997.0;;;7.92;58.92
32452;BME280;45528;52.102;5.242;2023-02-14T04:48:25;102998.0;;;7.94;58.88
32452;BME280;45528;52.102;5.242;2023-02-14T04:51:38;102999.0;;;7.94;58.84
32452;BME280;45528;52.102;5.242;2023-02-14T04:53:14;103002.0;;;7.91;58.9
32452;BME280;45528;52.102;5.242;2023-02-14T04:54:50;102999.0;;;7.94;58.68
32452;BME280;45528;52.102;5.242;2023-02-14T04:58:04;103001.0;;;7.91;58.75
32452;BME280;45528;52.102;5.242;2023-02-14T04:59:40;102998.0;;;7.92;58.87
32452;BME280;45528;52.102;5.242;2023-02-14T05:01:16;102994.0;;;7.94;58.9
32452;BME280;45528;52.102;5.242;2023-02-14T05:04:29;102992.0;;;7.95;58.98
32452;BME280;45528;52.102;5.242;2023-02-14T05:06:05;102995.0;;;7.97;58.86
32452;BME280;45528;52.102;5.242;2023-02-14T05:07:41;102995.0;;;7.96;58.93
32452;BME280;45528;52.102;5.242;2023-02-14T05:09:18;102997.0;;;7.96;58.81
32452;BME280;45528;52.102;5.242;2023-02-14T05:12:30;102994.0;;;7.96;58.93
32452;BME280;45528;52.102;5.242;2023-02-14T05:14:07;102993.0;;;7.98;58.75
32452;BME280;45528;52.102;5.242;2023-02-14T05:15:44;102992.0;;;7.97;58.81
32452;BME280;45528;52.102;5.242;2023-02-14T05:18:56;102991.00000000001;;;7.99;58.91
32452;BME280;45528;52.102;5.242;2023-02-14T05:20:32;102997.0;;;7.97;58.93
32452;BME280;45528;52.102;5.242;2023-02-14T05:22:08;102993.0;;;8.01;58.88
32452;BME280;45528;52.102;5.242;2023-02-14T05:25:21;102992.0;;;7.99;58.88
32452;BME280;45528;52.102;5.242;2023-02-14T05:26:57;102993.0;;;7.94;58.99
32452;BME280;45528;52.102;5.242;2023-02-14T05:28:33;102992.0;;;7.94;59.11
32452;BME280;45528;52.102;5.242;2023-02-14T05:31:48;102991.00000000001;;;7.96;58.97
32452;BME280;45528;52.102;5.242;2023-02-14T05:33:25;102994.0;;;7.96;58.98
32452;BME280;45528;52.102;5.242;2023-02-14T05:35:02;102993.0;;;7.91;59.22
32452;BME280;45528;52.102;5.242;2023-02-14T05:36:39;102991.00000000001;;;7.94;59.19
32452;BME280;45528;52.102;5.242;2023-02-14T05:39:51;102988.00000000001;;;7.94;59.27
32452;BME280;45528;52.102;5.242;2023-02-14T05:41:28;102993.0;;;7.92;59.27
32452;BME280;45528;52.102;5.242;2023-02-14T05:43:05;102992.0;;;7.91;59.19
32452;BME280;45528;52.102;5.242;2023-02-14T05:46:18;102991.00000000001;;;7.89;59.22
32452;BME280;45528;52.102;5.242;2023-02-14T05:47:54;102993.0;;;7.9;59.18
32452;BME280;45528;52.102;5.242;2023-02-14T05:49:30;102994.0;;;7.87;59.14
32452;BME280;45528;52.102;5.242;2023-02-14T05:52:45;102995.0;;;7.87;59.12
32452;BME280;45528;52.102;5.242;2023-02-14T05:54:21;102996.0;;;7.9;58.95
32452;BME280;45528;52.102;5.242;2023-02-14T05:55:57;102996.0;;;7.88;58.92
32452;BME280;45528;52.102;5.242;2023-02-14T05:57:33;102992.0;;;7.86;59.06
32452;BME280;45528;52.102;5.242;2023-02-14T06:00:46;102993.0;;;7.85;59.24
32452;BME280;45528;52.102;5.242;2023-02-14T06:02:23;102993.0;;;7.88;59.07
32452;BME280;45528;52.102;5.242;2023-02-14T06:03:59;102992.0;;;7.84;59.2
32452;BME280;45528;52.102;5.242;2023-02-14T06:07:11;102990.00000000001;;;7.85;58.88
32452;BME280;45528;52.102;5.242;2023-02-14T06:08:47;102989.00000000001;;;7.84;59.04
32452;BME280;45528;52.102;5.242;2023-02-14T06:10:24;102991.00000000001;;;7.84;59.14
32452;BME280;45528;52.102;5.242;2023-02-14T06:13:36;102992.0;;;7.8;59.23
32452;BME280;45528;52.102;5.242;2023-02-14T06:15:13;102991.00000000001;;;7.79;59.19
32452;BME280;45528;52.102;5.242;2023-02-14T06:16:50;102990.00000000001;;;7.81;59.04
32452;BME280;45528;52.102;5.242;2023-02-14T06:18:28;102983.0;;;7.77;59.21
32452;BME280;45528;52.102;5.242;2023-02-14T06:21:42;102991.00000000001;;;7.76;59.18
32452;BME280;45528;52.102;5.242;2023-02-14T06:23:18;102988.00000000001;;;7.77;59.24
32452;BME280;45528;52.102;5.242;2023-02-14T06:24:55;102991.00000000001;;;7.79;59.26
32452;BME280;45528;52.102;5.242;2023-02-14T06:28:08;102991.00000000001;;;7.77;59.17
32452;BME280;45528;52.102;5.242;2023-02-14T06:29:44;102995.0;;;7.78;59.15
32452;BME280;45528;52.102;5.242;2023-02-14T06:31:20;102997.0;;;7.79;58.95
32452;BME280;45528;52.102;5.242;2023-02-14T06:34:38;103000.0;;;7.77;58.99
32452;BME280;45528;52.102;5.242;2023-02-14T06:36:15;103003.0;;;7.76;59.09
32452;BME280;45528;52.102;5.242;2023-02-14T06:37:52;103004.0;;;7.75;59.26
32452;BME280;45528;52.102;5.242;2023-02-14T06:39:28;103005.0;;;7.74;59.11
32452;BME280;45528;52.102;5.242;2023-02-14T06:42:43;103004.0;;;7.74;59.19
32452;BME280;45528;52.102;5.242;2023-02-14T06:44:19;103000.0;;;7.73;59.22
32452;BME280;45528;52.102;5.242;2023-02-14T06:45:56;102998.0;;;7.73;59.25
32452;BME280;45528;52.102;5.242;2023-02-14T06:49:08;102998.0;;;7.74;59.24
32452;BME280;45528;52.102;5.242;2023-02-14T06:50:45;102999.0;;;7.72;59.26
32452;BME280;45528;52.102;5.242;2023-02-14T06:52:22;102997.0;;;7.71;59.36
32452;BME280;45528;52.102;5.242;2023-02-14T06:53:58;102997.0;;;7.72;59.4
32452;BME280;45528;52.102;5.242;2023-02-14T06:57:11;102998.0;;;7.84;59.66
32452;BME280;45528;52.102;5.242;2023-02-14T06:58:47;102993.0;;;7.89;59.39
32452;BME280;45528;52.102;5.242;2023-02-14T07:00:23;102998.0;;;7.92;59.15
32452;BME280;45528;52.102;5.242;2023-02-14T07:03:35;102996.0;;;7.88;59.19
32452;BME280;45528;52.102;5.242;2023-02-14T07:05:12;102996.0;;;7.87;59.12
32452;BME280;45528;52.102;5.242;2023-02-14T07:06:48;102993.0;;;7.82;59.1
32452;BME280;45528;52.102;5.242;2023-02-14T07:10:01;102995.0;;;7.8;58.98
32452;BME280;45528;52.102;5.242;2023-02-14T07:11:38;102993.0;;;7.8;59.22
32452;BME280;45528;52.102;5.242;2023-02-14T07:13:14;102994.0;;;7.81;59.24
32452;BME280;45528;52.102;5.242;2023-02-14T07:14:50;102994.0;;;7.83;59.35
32452;BME280;45528;52.102;5.242;2023-02-14T07:18:03;102994.0;;;7.84;59.27
32452;BME280;45528;52.102;5.242;2023-02-14T07:19:40;102998.0;;;7.89;59.31
32452;BME280;45528;52.102;5.242;2023-02-14T07:21:16;102999.0;;;7.91;59.34
32452;BME280;45528;52.102;5.242;2023-02-14T07:24:30;102995.0;;;7.97;59.25
32452;BME280;45528;52.102;5.242;2023-02-14T07:26:07;103000.0;;;7.96;59.47
32452;BME280;45528;52.102;5.242;2023-02-14T07:27:43;102998.0;;;7.94;59.28
32452;BME280;45528;52.102;5.242;2023-02-14T07:30:58;102997.0;;;7.98;59.24
32452;BME280;45528;52.102;5.242;2023-02-14T07:32:35;103000.0;;;7.99;59.28
32452;BME280;45528;52.102;5.242;2023-02-14T07:34:12;102995.0;;;7.96;59.47
32452;BME280;45528;52.102;5.242;2023-02-14T07:35:50;103003.0;;;7.99;59.44
32452;BME280;45528;52.102;5.242;2023-02-14T07:39:02;103002.0;;;8.02;59.54
32452;BME280;45528;52.102;5.242;2023-02-14T07:40:38;103001.0;;;8.08;59.38
32452;BME280;45528;52.102;5.242;2023-02-14T07:42:14;103004.0;;;8.13;59.45
32452;BME280;45528;52.102;5.242;2023-02-14T07:45:27;103007.0;;;8.13;59.49
32452;BME280;45528;52.102;5.242;2023-02-14T07:47:04;103004.0;;;8.23;59.42
32452;BME280;45528;52.102;5.242;2023-02-14T07:48:41;103006.0;;;8.27;59.66
32452;BME280;45528;52.102;5.242;2023-02-14T07:51:54;103006.0;;;8.31;59.64
32452;BME280;45528;52.102;5.242;2023-02-14T07:53:30;103008.99999999999;;;8.32;59.64
32452;BME280;45528;52.102;5.242;2023-02-14T07:55:07;103008.99999999999;;;8.4;59.59
32452;BME280;45528;52.102;5.242;2023-02-14T07:56:43;103005.0;;;8.49;59.93
32452;BME280;45528;52.102;5.242;2023-02-14T07:59:56;103008.0;;;8.58;59.97
32452;BME280;45528;52.102;5.242;2023-02-14T08:01:32;103009.99999999999;;;8.69;60.16
32452;BME280;45528;52.102;5.242;2023-02-14T08:03:08;103008.99999999999;;;8.78;60.07
32452;BME280;45528;52.102;5.242;2023-02-14T08:06:21;103007.0;;;8.93;60.03
32452;BME280;45528;52.102;5.242;2023-02-14T08:07:56;103009.99999999999;;;9.11;59.79
32452;BME280;45528;52.102;5.242;2023-02-14T08:09:33;103014.00000000001;;;9.31;59.82
32452;BME280;45528;52.102;5.242;2023-02-14T08:13:01;103014.00000000001;;;9.46;59.66
32452;BME280;45528;52.102;5.242;2023-02-14T08:14:37;103014.00000000001;;;9.57;59.23
32452;BME280;45528;52.102;5.242;2023-02-14T08:16:14;103008.0;;;9.63;59.23
32452;BME280;45528;52.102;5.242;2023-02-14T08:17:50;103006.0;;;9.65;59.34
32452;BME280;45528;52.102;5.242;2023-02-14T08:21:05;103011.99999999999;;;9.77;59.37
32452;BME280;45528;52.102;5.242;2023-02-14T08:22:42;103008.99999999999;;;9.85;59.53
32452;BME280;45528;52.102;5.242;2023-02-14T08:24:18;103017.0;;;9.96;59.39
32452;BME280;45528;52.102;5.242;2023-02-14T08:27:31;103009.99999999999;;;10.14;58.87
32452;BME280;45528;52.102;5.242;2023-02-14T08:29:07;103011.99999999999;;;10.27;58.93
32452;BME280;45528;52.102;5.242;2023-02-14T08:30:44;103018.0;;;10.42;58.66
32452;BME280;45528;52.102;5.242;2023-02-14T08:32:21;103018.0;;;10.5;58.62
32452;BME280;45528;52.102;5.242;2023-02-14T08:35:34;103015.00000000001;;;10.74;58.62
32452;BME280;45528;52.102;5.242;2023-02-14T08:37:10;103015.00000000001;;;10.77;58.31
32452;BME280;45528;52.102;5.242;2023-02-14T08:38:47;103011.99999999999;;;10.85;58.36
32452;BME280;45528;52.102;5.242;2023-02-14T08:42:00;103013.00000000001;;;10.96;58.59
32452;BME280;45528;52.102;5.242;2023-02-14T08:43:36;103011.99999999999;;;11.07;58.37
32452;BME280;45528;52.102;5.242;2023-02-14T08:45:12;103016.00000000001;;;11.21;58.34
32452;BME280;45528;52.102;5.242;2023-02-14T08:48:26;103013.00000000001;;;11.31;58.15
32452;BME280;45528;52.102;5.242;2023-02-14T08:50:02;103005.0;;;11.44;58.15
32452;BME280;45528;52.102;5.242;2023-02-14T08:51:40;103002.0;;;11.48;58.19
32452;BME280;45528;52.102;5.242;2023-02-14T08:53:16;103007.0;;;11.64;57.99
32452;BME280;45528;52.102;5.242;2023-02-14T08:56:28;103006.0;;;11.7;57.91
32452;BME280;45528;52.102;5.242;2023-02-14T08:58:05;103009.99999999999;;;11.88;57.63
32452;BME280;45528;52.102;5.242;2023-02-14T08:59:43;103007.0;;;12.02;57.61
32452;BME280;45528;52.102;5.242;2023-02-14T09:02:56;103009.99999999999;;;12.06;57.56
32452;BME280;45528;52.102;5.242;2023-02-14T09:04:33;103014.00000000001;;;12.36;57.1
32452;BME280;45528;52.102;5.242;2023-02-14T09:06:12;103014.00000000001;;;12.52;56.96
32452;BME280;45528;52.102;5.242;2023-02-14T09:07:49;103005.0;;;12.66;56.76
32452;BME280;45528;52.102;5.242;2023-02-14T09:11:06;103007.0;;;12.48;56.77
32452;BME280;45528;52.102;5.242;2023-02-14T09:12:42;103005.0;;;12.51;56.9
32452;BME280;45528;52.102;5.242;2023-02-14T09:14:20;103003.0;;;12.71;56.54
32452;BME280;45528;52.102;5.242;2023-02-14T09:17:33;103002.0;;;12.81;56.19
32452;BME280;45528;52.102;5.242;2023-02-14T09:19:10;103000.0;;;12.87;56.32
32452;BME280;45528;52.102;5.242;2023-02-14T09:20:45;103000.0;;;13.04;55.93
32452;BME280;45528;52.102;5.242;2023-02-14T09:23:58;102998.0;;;13.15;55.85
32452;BME280;45528;52.102;5.242;2023-02-14T09:25:34;102999.0;;;13.16;55.5
32452;BME280;45528;52.102;5.242;2023-02-14T09:27:10;102993.0;;;13.23;55.53
32452;BME280;45528;52.102;5.242;2023-02-14T09:28:46;102996.0;;;13.39;55.09
32452;BME280;45528;52.102;5.242;2023-02-14T09:32:00;102997.0;;;13.5;55.02
32452;BME280;45528;52.102;5.242;2023-02-14T09:34:54;102995.0;;;13.67;54.56
32452;BME280;45528;52.102;5.242;2023-02-14T09:38:19;102994.0;;;13.77;54.04
32452;BME280;45528;52.102;5.242;2023-02-14T09:39:55;102992.0;;;13.81;54.26
32452;BME280;45528;52.102;5.242;2023-02-14T09:41:48;102992.0;;;13.92;53.76
32452;BME280;45528;52.102;5.242;2023-02-14T09:43:49;102990.00000000001;;;13.93;53.93
32452;BME280;45528;52.102;5.242;2023-02-14T09:47:17;102994.0;;;14.21;53.87
32452;BME280;45528;52.102;5.242;2023-02-14T09:48:56;102992.0;;;14.26;53.11
32452;BME280;45528;52.102;5.242;2023-02-14T09:50:37;102992.0;;;14.23;53.03
32452;BME280;45528;52.102;5.242;2023-02-14T09:52:19;102984.99999999999;;;14.39;53.0
32452;BME280;45528;52.102;5.242;2023-02-14T09:54:01;102986.99999999999;;;14.57;52.52
32452;BME280;45528;52.102;5.242;2023-02-14T09:57:33;102984.99999999999;;;14.41;52.58
32452;BME280;45528;52.102;5.242;2023-02-14T09:59:18;102982.0;;;14.21;52.84
32452;BME280;45528;52.102;5.242;2023-02-14T10:01:05;102983.99999999999;;;14.38;52.49
32452;BME280;45528;52.102;5.242;2023-02-14T10:02:56;102982.0;;;14.19;53.22
32452;BME280;45528;52.102;5.242;2023-02-14T10:04:33;102983.0;;;14.39;52.63
32452;BME280;45528;52.102;5.242;2023-02-14T10:08:37;102990.00000000001;;;14.37;52.64
32452;BME280;45528;52.102;5.242;2023-02-14T10:10:23;102989.00000000001;;;14.59;52.36
32452;BME280;45528;52.102;5.242;2023-02-14T10:12:01;102988.00000000001;;;14.58;51.99
32452;BME280;45528;52.102;5.242;2023-02-14T10:13:40;102991.00000000001;;;14.9;51.91
32452;BME280;45528;52.102;5.242;2023-02-14T10:15:24;102990.00000000001;;;14.84;52.08
32452;BME280;45528;52.102;5.242;2023-02-14T10:17:05;102991.00000000001;;;14.97;51.49
32452;BME280;45528;52.102;5.242;2023-02-14T10:20:30;102989.00000000001;;;14.62;52.18
32452;BME280;45528;52.102;5.242;2023-02-14T10:22:13;102990.00000000001;;;14.88;51.35
32452;BME280;45528;52.102;5.242;2023-02-14T10:23:56;102989.00000000001;;;15.09;51.16
32452;BME280;45528;52.102;5.242;2023-02-14T10:25:41;102983.99999999999;;;15.14;51.29
32452;BME280;45528;52.102;5.242;2023-02-14T10:29:12;102982.0;;;15.44;50.62
32452;BME280;45528;52.102;5.242;2023-02-14T10:30:54;102986.99999999999;;;15.6;50.23
32452;BME280;45528;52.102;5.242;2023-02-14T10:32:47;102976.0;;;15.48;50.09
32452;BME280;45528;52.102;5.242;2023-02-14T10:34:34;102978.0;;;15.6;49.95
32452;BME280;45528;52.102;5.242;2023-02-14T10:36:23;102977.0;;;15.52;49.9
32452;BME280;45528;52.102;5.242;2023-02-14T10:38:15;102973.0;;;15.74;49.75
32452;BME280;45528;52.102;5.242;2023-02-14T10:40:05;102977.0;;;15.78;49.22
32452;BME280;45528;52.102;5.242;2023-02-14T10:43:47;102974.0;;;15.63;49.79
32452;BME280;45528;52.102;5.242;2023-02-14T10:45:33;102972.0;;;15.77;49.48
32452;BME280;45528;52.102;5.242;2023-02-14T10:47:25;102974.0;;;15.95;48.91
32452;BME280;45528;52.102;5.242;2023-02-14T10:49:16;102970.0;;;15.98;48.67
32452;BME280;45528;52.102;5.242;2023-02-14T10:51:04;102971.0;;;16.18;48.54
32452;BME280;45528;52.102;5.242;2023-02-14T10:52:53;102968.0;;;16.23;48.26
32452;BME280;45528;52.102;5.242;2023-02-14T10:54:41;102973.0;;;16.05;48.77
32452;BME280;45528;52.102;5.242;2023-02-14T10:58:05;102973.0;;;16.37;48.45